sensor_id;sensor_type;location;lat;lon;timestamp;temperature;humidity
14779;DHT22;7481;53.750;10.570;2022-09-12T00:01:39;12.40;99.90
14779;DHT22;7481;53.750;10.570;2022-09-12T00:04:26;12.50;99.90
14779;DHT22;7481;53.750;10.570;2022-09-12T00:07:13;12.50;99.90
14779;DHT22;7481;53.750;10.570;2022-09-12T00:10:00;12.40;99.90
14779;DHT22;7481;53.750;10.570;2022-09-12T00:12:47;12.40;99.90
14779;DHT22;7481;53.750;10.570;2022-09-12T00:15:38;12.40;99.90
14779;DHT22;7481;53.750;10.570;2022-09-12T00:18:26;12.30;99.90
14779;DHT22;7481;53.750;10.570;2022-09-12T00:21:14;12.30;99.90
14779;DHT22;7481;53.750;10.570;2022-09-12T00:24:01;12.30;99.90
14779;DHT22;7481;53.750;10.570;2022-09-12T00:26:48;12.30;99.90
14779;DHT22;7481;53.750;10.570;2022-09-12T00:29:35;12.30;99.90
14779;DHT22;7481;53.750;10.570;2022-09-12T00:32:22;12.30;99.90
14779;DHT22;7481;53.750;10.570;2022-09-12T00:35:09;12.20;99.90
14779;DHT22;7481;53.750;10.570;2022-09-12T00:37:56;12.20;99.90
14779;DHT22;7481;53.750;10.570;2022-09-12T00:40:43;12.20;99.90
14779;DHT22;7481;53.750;10.570;2022-09-12T00:43:37;12.20;99.90
14779;DHT22;7481;53.750;10.570;2022-09-12T00:46:36;12.40;99.90
14779;DHT22;7481;53.750;10.570;2022-09-12T00:49:45;12.30;99.90
14779;DHT22;7481;53.750;10.570;2022-09-12T00:52:52;12.30;99.90
14779;DHT22;7481;53.750;10.570;2022-09-12T00:55:46;12.30;99.90
14779;DHT22;7481;53.750;10.570;2022-09-12T00:58:53;12.20;99.90
14779;DHT22;7481;53.750;10.570;2022-09-12T01:01:43;12.20;99.90
14779;DHT22;7481;53.750;10.570;2022-09-12T01:04:34;12.20;99.90
14779;DHT22;7481;53.750;10.570;2022-09-12T01:07:22;12.20;99.90
14779;DHT22;7481;53.750;10.570;2022-09-12T01:10:10;12.20;99.90
14779;DHT22;7481;53.750;10.570;2022-09-12T01:12:57;12.10;99.90
14779;DHT22;7481;53.750;10.570;2022-09-12T01:15:45;12.00;99.90
14779;DHT22;7481;53.750;10.570;2022-09-12T01:27:58;11.80;99.90
14779;DHT22;7481;53.750;10.570;2022-09-12T01:30:54;11.80;99.90
14779;DHT22;7481;53.750;10.570;2022-09-12T01:33:54;11.70;99.90
14779;DHT22;7481;53.750;10.570;2022-09-12T01:37:04;11.80;99.90
14779;DHT22;7481;53.750;10.570;2022-09-12T01:40:06;11.80;99.90
14779;DHT22;7481;53.750;10.570;2022-09-12T01:43:04;11.80;99.90
14779;DHT22;7481;53.750;10.570;2022-09-12T01:46:34;11.80;99.90
14779;DHT22;7481;53.750;10.570;2022-09-12T01:49:22;11.80;99.90
14779;DHT22;7481;53.750;10.570;2022-09-12T01:52:49;11.70;99.90
14779;DHT22;7481;53.750;10.570;2022-09-12T01:55:41;11.70;99.90
14779;DHT22;7481;53.750;10.570;2022-09-12T01:58:39;11.60;99.90
14779;DHT22;7481;53.750;10.570;2022-09-12T02:01:35;11.70;99.90
14779;DHT22;7481;53.750;10.570;2022-09-12T02:04:28;11.70;99.90
14779;DHT22;7481;53.750;10.570;2022-09-12T02:07:25;11.70;99.90
14779;DHT22;7481;53.750;10.570;2022-09-12T02:10:19;11.60;99.90
14779;DHT22;7481;53.750;10.570;2022-09-12T02:13:17;11.60;99.90
14779;DHT22;7481;53.750;10.570;2022-09-12T02:16:18;11.60;99.90
14779;DHT22;7481;53.750;10.570;2022-09-12T02:19:22;11.50;99.90
14779;DHT22;7481;53.750;10.570;2022-09-12T02:22:14;11.50;99.90
14779;DHT22;7481;53.750;10.570;2022-09-12T02:25:04;11.60;99.90
14779;DHT22;7481;53.750;10.570;2022-09-12T02:27:58;11.70;99.90
14779;DHT22;7481;53.750;10.570;2022-09-12T02:37:00;11.60;99.90
14779;DHT22;7481;53.750;10.570;2022-09-12T02:39:48;11.60;99.90
14779;DHT22;7481;53.750;10.570;2022-09-12T02:42:36;11.60;99.90
14779;DHT22;7481;53.750;10.570;2022-09-12T02:45:23;11.60;99.90
14779;DHT22;7481;53.750;10.570;2022-09-12T02:48:14;11.50;99.90
14779;DHT22;7481;53.750;10.570;2022-09-12T02:51:02;11.50;99.90
14779;DHT22;7481;53.750;10.570;2022-09-12T02:53:50;11.60;99.90
14779;DHT22;7481;53.750;10.570;2022-09-12T02:56:41;11.50;99.90
14779;DHT22;7481;53.750;10.570;2022-09-12T02:59:28;11.50;99.90
14779;DHT22;7481;53.750;10.570;2022-09-12T03:02:39;11.40;99.90
14779;DHT22;7481;53.750;10.570;2022-09-12T03:05:42;11.30;99.90
14779;DHT22;7481;53.750;10.570;2022-09-12T03:11:35;11.30;99.90
14779;DHT22;7481;53.750;10.570;2022-09-12T03:17:56;11.30;99.90
14779;DHT22;7481;53.750;10.570;2022-09-12T03:24:19;11.30;99.90
14779;DHT22;7481;53.750;10.570;2022-09-12T03:27:20;11.30;99.90
14779;DHT22;7481;53.750;10.570;2022-09-12T03:30:10;11.20;99.90
14779;DHT22;7481;53.750;10.570;2022-09-12T03:32:58;11.20;99.90
14779;DHT22;7481;53.750;10.570;2022-09-12T03:35:45;11.20;99.90
14779;DHT22;7481;53.750;10.570;2022-09-12T03:38:33;11.30;99.90
14779;DHT22;7481;53.750;10.570;2022-09-12T03:41:20;11.30;99.90
14779;DHT22;7481;53.750;10.570;2022-09-12T03:44:07;11.20;99.90
14779;DHT22;7481;53.750;10.570;2022-09-12T03:46:54;11.20;99.90
14779;DHT22;7481;53.750;10.570;2022-09-12T03:49:41;11.20;99.90
14779;DHT22;7481;53.750;10.570;2022-09-12T03:52:28;11.20;99.90
14779;DHT22;7481;53.750;10.570;2022-09-12T03:55:15;11.10;99.90
14779;DHT22;7481;53.750;10.570;2022-09-12T03:58:02;11.00;99.90
14779;DHT22;7481;53.750;10.570;2022-09-12T04:00:49;11.10;99.90
14779;DHT22;7481;53.750;10.570;2022-09-12T04:03:36;11.10;99.90
14779;DHT22;7481;53.750;10.570;2022-09-12T04:06:23;11.00;99.90
14779;DHT22;7481;53.750;10.570;2022-09-12T04:09:10;11.10;99.90
14779;DHT22;7481;53.750;10.570;2022-09-12T04:11:57;11.00;99.90
14779;DHT22;7481;53.750;10.570;2022-09-12T04:14:43;11.10;99.90
14779;DHT22;7481;53.750;10.570;2022-09-12T04:17:30;11.00;99.90
14779;DHT22;7481;53.750;10.570;2022-09-12T04:20:17;10.80;99.90
14779;DHT22;7481;53.750;10.570;2022-09-12T04:23:04;10.80;99.90
14779;DHT22;7481;53.750;10.570;2022-09-12T04:25:56;10.80;99.90
14779;DHT22;7481;53.750;10.570;2022-09-12T04:28:44;10.70;99.90
14779;DHT22;7481;53.750;10.570;2022-09-12T04:31:32;10.70;99.90
14779;DHT22;7481;53.750;10.570;2022-09-12T04:34:19;10.80;99.90
14779;DHT22;7481;53.750;10.570;2022-09-12T04:37:06;10.80;99.90
14779;DHT22;7481;53.750;10.570;2022-09-12T04:39:53;10.90;99.90
14779;DHT22;7481;53.750;10.570;2022-09-12T04:42:43;10.80;99.90
14779;DHT22;7481;53.750;10.570;2022-09-12T04:45:30;10.70;99.90
14779;DHT22;7481;53.750;10.570;2022-09-12T04:48:17;10.70;99.90
14779;DHT22;7481;53.750;10.570;2022-09-12T04:51:16;10.80;99.90
14779;DHT22;7481;53.750;10.570;2022-09-12T04:54:12;10.80;99.90
14779;DHT22;7481;53.750;10.570;2022-09-12T04:56:59;10.90;99.90
14779;DHT22;7481;53.750;10.570;2022-09-12T04:59:48;10.90;99.90
14779;DHT22;7481;53.750;10.570;2022-09-12T05:02:37;11.00;99.90
14779;DHT22;7481;53.750;10.570;2022-09-12T05:05:24;10.90;99.90
14779;DHT22;7481;53.750;10.570;2022-09-12T05:08:11;10.80;99.90
14779;DHT22;7481;53.750;10.570;2022-09-12T05:11:03;10.70;99.90
14779;DHT22;7481;53.750;10.570;2022-09-12T05:13:51;9.60;99.90
14779;DHT22;7481;53.750;10.570;2022-09-12T05:16:40;10.80;99.90
14779;DHT22;7481;53.750;10.570;2022-09-12T05:19:34;10.90;99.90
14779;DHT22;7481;53.750;10.570;2022-09-12T05:22:23;10.90;99.90
14779;DHT22;7481;53.750;10.570;2022-09-12T05:25:11;10.90;99.90
14779;DHT22;7481;53.750;10.570;2022-09-12T05:27:58;11.00;99.90
14779;DHT22;7481;53.750;10.570;2022-09-12T05:30:44;11.10;99.90
14779;DHT22;7481;53.750;10.570;2022-09-12T05:33:33;8.30;99.90
14779;DHT22;7481;53.750;10.570;2022-09-12T05:36:26;10.90;99.90
14779;DHT22;7481;53.750;10.570;2022-09-12T05:39:13;11.00;99.90
14779;DHT22;7481;53.750;10.570;2022-09-12T05:42:00;11.10;99.90
14779;DHT22;7481;53.750;10.570;2022-09-12T05:44:48;11.20;99.90
14779;DHT22;7481;53.750;10.570;2022-09-12T05:47:35;11.20;99.90
14779;DHT22;7481;53.750;10.570;2022-09-12T05:50:22;11.30;99.90
14779;DHT22;7481;53.750;10.570;2022-09-12T05:53:09;11.30;99.90
14779;DHT22;7481;53.750;10.570;2022-09-12T05:56:16;11.30;99.90
14779;DHT22;7481;53.750;10.570;2022-09-12T05:59:06;11.40;99.90
14779;DHT22;7481;53.750;10.570;2022-09-12T06:01:53;11.40;99.90
14779;DHT22;7481;53.750;10.570;2022-09-12T06:04:40;11.50;99.90
14779;DHT22;7481;53.750;10.570;2022-09-12T06:07:27;11.60;99.90
14779;DHT22;7481;53.750;10.570;2022-09-12T06:10:15;11.70;99.90
14779;DHT22;7481;53.750;10.570;2022-09-12T06:13:03;11.80;99.90
14779;DHT22;7481;53.750;10.570;2022-09-12T06:15:50;11.80;99.90
14779;DHT22;7481;53.750;10.570;2022-09-12T06:18:39;11.80;99.90
14779;DHT22;7481;53.750;10.570;2022-09-12T06:21:28;11.90;99.90
14779;DHT22;7481;53.750;10.570;2022-09-12T06:24:20;12.00;99.90
14779;DHT22;7481;53.750;10.570;2022-09-12T06:27:07;12.10;99.90
14779;DHT22;7481;53.750;10.570;2022-09-12T06:29:54;12.20;99.90
14779;DHT22;7481;53.750;10.570;2022-09-12T06:32:41;12.30;99.90
14779;DHT22;7481;53.750;10.570;2022-09-12T06:35:28;12.40;99.90
14779;DHT22;7481;53.750;10.570;2022-09-12T06:38:16;14.00;99.90
14779;DHT22;7481;53.750;10.570;2022-09-12T06:41:05;12.60;99.90
14779;DHT22;7481;53.750;10.570;2022-09-12T06:43:54;12.70;99.90
14779;DHT22;7481;53.750;10.570;2022-09-12T06:46:42;12.80;99.90
14779;DHT22;7481;53.750;10.570;2022-09-12T06:49:31;13.00;99.90
14779;DHT22;7481;53.750;10.570;2022-09-12T06:52:19;13.00;99.90
14779;DHT22;7481;53.750;10.570;2022-09-12T06:55:07;13.10;99.90
14779;DHT22;7481;53.750;10.570;2022-09-12T06:57:55;13.20;99.90
14779;DHT22;7481;53.750;10.570;2022-09-12T07:00:42;13.20;99.90
14779;DHT22;7481;53.750;10.570;2022-09-12T07:03:30;13.40;99.90
14779;DHT22;7481;53.750;10.570;2022-09-12T07:06:20;13.50;99.90
14779;DHT22;7481;53.750;10.570;2022-09-12T07:09:11;13.60;99.90
14779;DHT22;7481;53.750;10.570;2022-09-12T07:11:59;13.60;99.90
14779;DHT22;7481;53.750;10.570;2022-09-12T07:14:50;13.80;99.90
14779;DHT22;7481;53.750;10.570;2022-09-12T07:17:38;13.90;99.90
14779;DHT22;7481;53.750;10.570;2022-09-12T07:20:26;14.20;99.90
14779;DHT22;7481;53.750;10.570;2022-09-12T07:23:13;15.00;99.90
14779;DHT22;7481;53.750;10.570;2022-09-12T07:26:01;16.60;99.90
14779;DHT22;7481;53.750;10.570;2022-09-12T07:28:53;18.20;99.90
14779;DHT22;7481;53.750;10.570;2022-09-12T07:32:01;19.90;99.90
14779;DHT22;7481;53.750;10.570;2022-09-12T07:34:49;21.50;99.90
14779;DHT22;7481;53.750;10.570;2022-09-12T07:37:36;22.70;99.90
14779;DHT22;7481;53.750;10.570;2022-09-12T07:40:24;24.00;99.90
14779;DHT22;7481;53.750;10.570;2022-09-12T07:43:12;24.80;99.90
14779;DHT22;7481;53.750;10.570;2022-09-12T07:45:59;25.60;99.90
14779;DHT22;7481;53.750;10.570;2022-09-12T07:48:55;26.40;99.90
14779;DHT22;7481;53.750;10.570;2022-09-12T07:51:46;26.80;99.90
14779;DHT22;7481;53.750;10.570;2022-09-12T07:54:34;27.20;99.90
14779;DHT22;7481;53.750;10.570;2022-09-12T07:57:22;27.90;99.90
14779;DHT22;7481;53.750;10.570;2022-09-12T08:00:10;28.00;99.90
14779;DHT22;7481;53.750;10.570;2022-09-12T08:02:57;28.20;99.90
14779;DHT22;7481;53.750;10.570;2022-09-12T08:05:45;28.40;99.90
14779;DHT22;7481;53.750;10.570;2022-09-12T08:08:32;28.10;99.90
14779;DHT22;7481;53.750;10.570;2022-09-12T08:11:21;28.30;99.90
14779;DHT22;7481;53.750;10.570;2022-09-12T08:14:08;28.90;99.90
14779;DHT22;7481;53.750;10.570;2022-09-12T08:16:56;29.20;99.70
14779;DHT22;7481;53.750;10.570;2022-09-12T08:19:43;29.70;99.10
14779;DHT22;7481;53.750;10.570;2022-09-12T08:22:31;29.90;97.80
14779;DHT22;7481;53.750;10.570;2022-09-12T08:25:18;29.60;96.80
14779;DHT22;7481;53.750;10.570;2022-09-12T08:28:06;29.20;98.60
14779;DHT22;7481;53.750;10.570;2022-09-12T08:30:58;28.80;97.60
14779;DHT22;7481;53.750;10.570;2022-09-12T08:33:46;28.90;98.90
14779;DHT22;7481;53.750;10.570;2022-09-12T08:36:34;28.60;97.80
14779;DHT22;7481;53.750;10.570;2022-09-12T08:39:21;28.70;98.50
14779;DHT22;7481;53.750;10.570;2022-09-12T08:42:16;29.10;97.20
14779;DHT22;7481;53.750;10.570;2022-09-12T08:45:53;29.20;97.10
14779;DHT22;7481;53.750;10.570;2022-09-12T08:48:44;28.80;97.40
14779;DHT22;7481;53.750;10.570;2022-09-12T08:51:33;29.00;95.90
14779;DHT22;7481;53.750;10.570;2022-09-12T08:54:27;28.40;98.10
14779;DHT22;7481;53.750;10.570;2022-09-12T08:57:15;27.50;98.30
14779;DHT22;7481;53.750;10.570;2022-09-12T09:00:11;27.50;98.70
14779;DHT22;7481;53.750;10.570;2022-09-12T09:06:06;27.80;97.30
14779;DHT22;7481;53.750;10.570;2022-09-12T09:09:07;28.30;97.20
14779;DHT22;7481;53.750;10.570;2022-09-12T09:15:28;28.30;96.70
14779;DHT22;7481;53.750;10.570;2022-09-12T09:18:26;28.30;98.10
14779;DHT22;7481;53.750;10.570;2022-09-12T09:21:39;28.50;97.70
14779;DHT22;7481;53.750;10.570;2022-09-12T09:24:52;28.60;96.70
14779;DHT22;7481;53.750;10.570;2022-09-12T09:27:58;28.10;97.20
14779;DHT22;7481;53.750;10.570;2022-09-12T09:30:48;27.70;97.50
14779;DHT22;7481;53.750;10.570;2022-09-12T09:33:36;27.50;98.90
14779;DHT22;7481;53.750;10.570;2022-09-12T09:36:38;27.40;98.20
14779;DHT22;7481;53.750;10.570;2022-09-12T09:39:48;26.70;99.40
14779;DHT22;7481;53.750;10.570;2022-09-12T09:45:43;25.80;99.90
14779;DHT22;7481;53.750;10.570;2022-09-12T09:48:36;25.20;99.90
14779;DHT22;7481;53.750;10.570;2022-09-12T09:51:34;25.20;99.90
14779;DHT22;7481;53.750;10.570;2022-09-12T09:54:29;25.40;99.90
14779;DHT22;7481;53.750;10.570;2022-09-12T09:57:38;25.50;99.90
14779;DHT22;7481;53.750;10.570;2022-09-12T10:03:24;26.10;99.90
14779;DHT22;7481;53.750;10.570;2022-09-12T10:06:29;26.20;99.90
14779;DHT22;7481;53.750;10.570;2022-09-12T10:09:24;26.60;99.90
14779;DHT22;7481;53.750;10.570;2022-09-12T10:12:26;26.50;99.90
14779;DHT22;7481;53.750;10.570;2022-09-12T10:15:22;26.00;99.90
14779;DHT22;7481;53.750;10.570;2022-09-12T10:18:09;25.40;99.90
14779;DHT22;7481;53.750;10.570;2022-09-12T10:20:56;25.10;99.90
14779;DHT22;7481;53.750;10.570;2022-09-12T10:23:44;24.90;99.90
14779;DHT22;7481;53.750;10.570;2022-09-12T10:26:36;25.10;99.90
14779;DHT22;7481;53.750;10.570;2022-09-12T10:29:31;25.10;99.90
14779;DHT22;7481;53.750;10.570;2022-09-12T10:32:28;25.10;99.90
14779;DHT22;7481;53.750;10.570;2022-09-12T10:35:21;25.10;99.90
14779;DHT22;7481;53.750;10.570;2022-09-12T10:38:29;25.10;99.90
14779;DHT22;7481;53.750;10.570;2022-09-12T10:41:17;24.80;99.90
14779;DHT22;7481;53.750;10.570;2022-09-12T10:44:07;24.80;99.90
14779;DHT22;7481;53.750;10.570;2022-09-12T10:47:19;24.30;99.90
14779;DHT22;7481;53.750;10.570;2022-09-12T10:53:24;24.30;99.90
14779;DHT22;7481;53.750;10.570;2022-09-12T10:56:24;23.90;99.90
14779;DHT22;7481;53.750;10.570;2022-09-12T11:02:49;23.50;99.90
14779;DHT22;7481;53.750;10.570;2022-09-12T11:05:44;23.30;99.90
14779;DHT22;7481;53.750;10.570;2022-09-12T11:11:42;23.70;99.90
14779;DHT22;7481;53.750;10.570;2022-09-12T11:14:53;24.10;99.90
14779;DHT22;7481;53.750;10.570;2022-09-12T11:23:44;23.60;99.90
14779;DHT22;7481;53.750;10.570;2022-09-12T11:32:51;23.80;99.90
14779;DHT22;7481;53.750;10.570;2022-09-12T11:35:50;21.90;99.90
14779;DHT22;7481;53.750;10.570;2022-09-12T11:38:51;23.50;99.90
14779;DHT22;7481;53.750;10.570;2022-09-12T11:41:48;23.50;99.90
14779;DHT22;7481;53.750;10.570;2022-09-12T11:44:39;23.60;99.90
14779;DHT22;7481;53.750;10.570;2022-09-12T11:47:28;23.90;99.90
14779;DHT22;7481;53.750;10.570;2022-09-12T11:50:27;23.90;99.90
14779;DHT22;7481;53.750;10.570;2022-09-12T11:53:22;23.70;99.90
14779;DHT22;7481;53.750;10.570;2022-09-12T11:56:16;23.40;99.90
14779;DHT22;7481;53.750;10.570;2022-09-12T11:59:34;23.10;99.90
14779;DHT22;7481;53.750;10.570;2022-09-12T12:02:28;22.80;99.90
14779;DHT22;7481;53.750;10.570;2022-09-12T12:05:25;22.70;99.90
14779;DHT22;7481;53.750;10.570;2022-09-12T12:08:14;22.70;99.90
14779;DHT22;7481;53.750;10.570;2022-09-12T12:11:03;22.80;99.90
14779;DHT22;7481;53.750;10.570;2022-09-12T12:14:12;23.00;99.90
14779;DHT22;7481;53.750;10.570;2022-09-12T12:17:00;23.00;99.90
14779;DHT22;7481;53.750;10.570;2022-09-12T12:19:57;23.00;99.90
14779;DHT22;7481;53.750;10.570;2022-09-12T12:22:53;23.10;99.90
14779;DHT22;7481;53.750;10.570;2022-09-12T12:25:54;23.20;99.90
14779;DHT22;7481;53.750;10.570;2022-09-12T12:34:46;23.40;99.90
14779;DHT22;7481;53.750;10.570;2022-09-12T12:40:30;23.30;99.90
14779;DHT22;7481;53.750;10.570;2022-09-12T12:43:29;23.30;99.90
14779;DHT22;7481;53.750;10.570;2022-09-12T12:46:19;22.90;99.90
14779;DHT22;7481;53.750;10.570;2022-09-12T12:49:21;22.80;99.90
14779;DHT22;7481;53.750;10.570;2022-09-12T12:52:17;22.70;99.90
14779;DHT22;7481;53.750;10.570;2022-09-12T12:55:04;21.30;99.90
14779;DHT22;7481;53.750;10.570;2022-09-12T12:57:53;22.50;99.90
14779;DHT22;7481;53.750;10.570;2022-09-12T13:00:42;22.50;99.90
14779;DHT22;7481;53.750;10.570;2022-09-12T13:03:32;22.80;99.90
14779;DHT22;7481;53.750;10.570;2022-09-12T13:06:40;23.00;99.90
14779;DHT22;7481;53.750;10.570;2022-09-12T13:09:36;23.10;99.90
14779;DHT22;7481;53.750;10.570;2022-09-12T13:12:41;23.30;99.90
14779;DHT22;7481;53.750;10.570;2022-09-12T13:18:28;23.20;99.90
14779;DHT22;7481;53.750;10.570;2022-09-12T13:21:19;22.90;99.90
14779;DHT22;7481;53.750;10.570;2022-09-12T13:24:14;22.80;99.90
14779;DHT22;7481;53.750;10.570;2022-09-12T13:27:01;22.60;99.90
14779;DHT22;7481;53.750;10.570;2022-09-12T13:29:48;22.60;99.90
14779;DHT22;7481;53.750;10.570;2022-09-12T13:32:35;22.50;99.90
14779;DHT22;7481;53.750;10.570;2022-09-12T13:44:46;22.60;99.90
14779;DHT22;7481;53.750;10.570;2022-09-12T13:47:43;22.60;99.90
14779;DHT22;7481;53.750;10.570;2022-09-12T13:50:36;22.50;99.90
14779;DHT22;7481;53.750;10.570;2022-09-12T13:53:28;22.50;99.90
14779;DHT22;7481;53.750;10.570;2022-09-12T13:56:19;22.40;99.90
14779;DHT22;7481;53.750;10.570;2022-09-12T13:59:09;22.30;99.90
14779;DHT22;7481;53.750;10.570;2022-09-12T14:01:57;22.30;99.90
14779;DHT22;7481;53.750;10.570;2022-09-12T14:04:47;22.20;99.90
14779;DHT22;7481;53.750;10.570;2022-09-12T14:07:54;22.20;99.90
14779;DHT22;7481;53.750;10.570;2022-09-12T14:10:43;22.30;99.90
14779;DHT22;7481;53.750;10.570;2022-09-12T14:13:31;22.20;99.90
14779;DHT22;7481;53.750;10.570;2022-09-12T14:16:19;22.10;99.90
14779;DHT22;7481;53.750;10.570;2022-09-12T14:19:10;21.90;99.90
14779;DHT22;7481;53.750;10.570;2022-09-12T14:21:58;21.70;99.90
14779;DHT22;7481;53.750;10.570;2022-09-12T14:24:49;21.70;99.90
14779;DHT22;7481;53.750;10.570;2022-09-12T14:27:43;21.60;99.90
14779;DHT22;7481;53.750;10.570;2022-09-12T14:30:35;21.50;99.90
14779;DHT22;7481;53.750;10.570;2022-09-12T14:33:23;21.50;99.90
14779;DHT22;7481;53.750;10.570;2022-09-12T14:36:16;21.50;99.90
14779;DHT22;7481;53.750;10.570;2022-09-12T14:39:14;21.40;99.90
14779;DHT22;7481;53.750;10.570;2022-09-12T14:42:10;21.50;99.90
14779;DHT22;7481;53.750;10.570;2022-09-12T14:45:03;21.50;99.90
14779;DHT22;7481;53.750;10.570;2022-09-12T14:48:00;21.60;99.90
14779;DHT22;7481;53.750;10.570;2022-09-12T14:50:51;22.00;99.90
14779;DHT22;7481;53.750;10.570;2022-09-12T14:53:47;22.20;99.90
14779;DHT22;7481;53.750;10.570;2022-09-12T14:56:41;22.20;99.90
14779;DHT22;7481;53.750;10.570;2022-09-12T14:59:36;22.30;99.90
14779;DHT22;7481;53.750;10.570;2022-09-12T15:02:25;22.30;99.90
14779;DHT22;7481;53.750;10.570;2022-09-12T15:08:00;22.10;99.90
14779;DHT22;7481;53.750;10.570;2022-09-12T15:10:47;22.00;99.90
14779;DHT22;7481;53.750;10.570;2022-09-12T15:13:39;21.90;99.90
14779;DHT22;7481;53.750;10.570;2022-09-12T15:16:26;21.80;99.90
14779;DHT22;7481;53.750;10.570;2022-09-12T15:19:13;21.60;99.90
14779;DHT22;7481;53.750;10.570;2022-09-12T15:22:00;21.70;99.90
14779;DHT22;7481;53.750;10.570;2022-09-12T15:24:47;21.60;99.90
14779;DHT22;7481;53.750;10.570;2022-09-12T15:27:34;21.60;99.90
14779;DHT22;7481;53.750;10.570;2022-09-12T15:30:21;21.40;99.90
14779;DHT22;7481;53.750;10.570;2022-09-12T15:33:10;21.40;99.90
14779;DHT22;7481;53.750;10.570;2022-09-12T15:35:57;21.30;99.90
14779;DHT22;7481;53.750;10.570;2022-09-12T15:38:45;21.20;99.90
14779;DHT22;7481;53.750;10.570;2022-09-12T15:41:34;21.10;99.90
14779;DHT22;7481;53.750;10.570;2022-09-12T15:44:22;21.00;99.90
14779;DHT22;7481;53.750;10.570;2022-09-12T15:47:12;20.90;99.90
14779;DHT22;7481;53.750;10.570;2022-09-12T15:49:59;20.80;99.90
14779;DHT22;7481;53.750;10.570;2022-09-12T15:52:46;20.70;99.90
14779;DHT22;7481;53.750;10.570;2022-09-12T15:55:33;20.60;99.90
14779;DHT22;7481;53.750;10.570;2022-09-12T15:58:20;20.50;99.90
14779;DHT22;7481;53.750;10.570;2022-09-12T16:01:13;20.50;99.90
14779;DHT22;7481;53.750;10.570;2022-09-12T16:04:01;20.50;99.90
14779;DHT22;7481;53.750;10.570;2022-09-12T16:06:50;20.50;99.90
14779;DHT22;7481;53.750;10.570;2022-09-12T16:09:37;20.30;99.90
14779;DHT22;7481;53.750;10.570;2022-09-12T16:12:24;20.60;99.90
14779;DHT22;7481;53.750;10.570;2022-09-12T16:15:15;20.70;99.90
14779;DHT22;7481;53.750;10.570;2022-09-12T16:18:02;20.70;99.90
14779;DHT22;7481;53.750;10.570;2022-09-12T16:20:53;20.70;99.90
14779;DHT22;7481;53.750;10.570;2022-09-12T16:23:45;20.70;99.90
14779;DHT22;7481;53.750;10.570;2022-09-12T16:26:32;20.70;99.90
14779;DHT22;7481;53.750;10.570;2022-09-12T16:29:20;20.60;99.90
14779;DHT22;7481;53.750;10.570;2022-09-12T16:32:07;20.50;99.90
14779;DHT22;7481;53.750;10.570;2022-09-12T16:34:54;20.40;99.90
14779;DHT22;7481;53.750;10.570;2022-09-12T16:37:41;20.40;99.90
14779;DHT22;7481;53.750;10.570;2022-09-12T16:40:28;20.20;99.90
14779;DHT22;7481;53.750;10.570;2022-09-12T16:43:16;20.20;99.90
14779;DHT22;7481;53.750;10.570;2022-09-12T16:46:15;20.10;99.90
14779;DHT22;7481;53.750;10.570;2022-09-12T16:49:03;20.10;99.90
14779;DHT22;7481;53.750;10.570;2022-09-12T16:51:51;20.00;99.90
14779;DHT22;7481;53.750;10.570;2022-09-12T16:54:38;19.90;99.90
14779;DHT22;7481;53.750;10.570;2022-09-12T16:57:25;19.90;99.90
14779;DHT22;7481;53.750;10.570;2022-09-12T17:00:12;19.80;99.90
14779;DHT22;7481;53.750;10.570;2022-09-12T17:03:00;19.80;99.90
14779;DHT22;7481;53.750;10.570;2022-09-12T17:05:56;19.70;99.90
14779;DHT22;7481;53.750;10.570;2022-09-12T17:08:46;19.70;99.90
14779;DHT22;7481;53.750;10.570;2022-09-12T17:11:37;19.60;99.90
14779;DHT22;7481;53.750;10.570;2022-09-12T17:14:24;19.60;99.90
14779;DHT22;7481;53.750;10.570;2022-09-12T17:17:11;19.50;99.90
14779;DHT22;7481;53.750;10.570;2022-09-12T17:19:59;19.40;99.90
14779;DHT22;7481;53.750;10.570;2022-09-12T17:22:46;19.40;99.90
14779;DHT22;7481;53.750;10.570;2022-09-12T17:25:33;19.30;99.90
14779;DHT22;7481;53.750;10.570;2022-09-12T17:28:23;19.20;99.90
14779;DHT22;7481;53.750;10.570;2022-09-12T17:31:12;19.20;99.90
14779;DHT22;7481;53.750;10.570;2022-09-12T17:34:00;19.10;99.90
14779;DHT22;7481;53.750;10.570;2022-09-12T17:36:47;19.00;99.90
14779;DHT22;7481;53.750;10.570;2022-09-12T17:39:34;18.90;99.90
14779;DHT22;7481;53.750;10.570;2022-09-12T17:42:21;18.80;99.90
14779;DHT22;7481;53.750;10.570;2022-09-12T17:45:10;18.80;99.90
14779;DHT22;7481;53.750;10.570;2022-09-12T17:48:04;18.70;99.90
14779;DHT22;7481;53.750;10.570;2022-09-12T17:50:53;18.60;99.90
14779;DHT22;7481;53.750;10.570;2022-09-12T17:53:41;18.60;99.90
14779;DHT22;7481;53.750;10.570;2022-09-12T17:56:29;18.60;99.90
14779;DHT22;7481;53.750;10.570;2022-09-12T17:59:19;18.50;99.90
14779;DHT22;7481;53.750;10.570;2022-09-12T18:02:11;18.50;99.90
14779;DHT22;7481;53.750;10.570;2022-09-12T18:05:02;18.40;99.90
14779;DHT22;7481;53.750;10.570;2022-09-12T18:07:51;18.40;99.90
14779;DHT22;7481;53.750;10.570;2022-09-12T18:10:38;18.30;99.90
14779;DHT22;7481;53.750;10.570;2022-09-12T18:13:25;18.30;99.90
14779;DHT22;7481;53.750;10.570;2022-09-12T18:16:12;18.30;99.90
14779;DHT22;7481;53.750;10.570;2022-09-12T18:19:00;18.30;99.90
14779;DHT22;7481;53.750;10.570;2022-09-12T18:21:47;18.30;99.90
14779;DHT22;7481;53.750;10.570;2022-09-12T18:24:34;18.30;99.90
14779;DHT22;7481;53.750;10.570;2022-09-12T18:27:21;18.30;99.90
14779;DHT22;7481;53.750;10.570;2022-09-12T18:30:09;18.30;99.90
14779;DHT22;7481;53.750;10.570;2022-09-12T18:33:08;18.30;99.90
14779;DHT22;7481;53.750;10.570;2022-09-12T18:35:55;18.30;99.90
14779;DHT22;7481;53.750;10.570;2022-09-12T18:38:43;18.30;99.90
14779;DHT22;7481;53.750;10.570;2022-09-12T18:41:30;18.30;99.90
14779;DHT22;7481;53.750;10.570;2022-09-12T18:44:17;18.30;99.90
14779;DHT22;7481;53.750;10.570;2022-09-12T18:47:04;18.30;99.90
14779;DHT22;7481;53.750;10.570;2022-09-12T18:49:52;18.20;99.90
14779;DHT22;7481;53.750;10.570;2022-09-12T18:52:39;18.20;99.90
14779;DHT22;7481;53.750;10.570;2022-09-12T18:55:26;18.20;99.90
14779;DHT22;7481;53.750;10.570;2022-09-12T18:58:13;18.20;99.90
14779;DHT22;7481;53.750;10.570;2022-09-12T19:01:14;18.10;99.90
14779;DHT22;7481;53.750;10.570;2022-09-12T19:04:02;18.10;99.90
14779;DHT22;7481;53.750;10.570;2022-09-12T19:06:52;18.10;99.90
14779;DHT22;7481;53.750;10.570;2022-09-12T19:09:39;18.10;99.90
14779;DHT22;7481;53.750;10.570;2022-09-12T19:12:26;18.10;99.90
14779;DHT22;7481;53.750;10.570;2022-09-12T19:15:12;18.10;99.90
14779;DHT22;7481;53.750;10.570;2022-09-12T19:17:59;18.20;99.90
14779;DHT22;7481;53.750;10.570;2022-09-12T19:20:50;18.20;99.90
14779;DHT22;7481;53.750;10.570;2022-09-12T19:23:37;18.20;99.90
14779;DHT22;7481;53.750;10.570;2022-09-12T19:26:25;18.10;99.90